Time;durP1;ratioP1;P1;durP2;ratioP2;P2;SDS_P1;SDS_P2;PMS_P1;PMS_P2;Temp;Humidity;BMP_temperature;BMP_pressure;BME280_temperature;BME280_humidity;BME280_pressure;Samples;Min_cycle;Max_cycle;Signal;HPM_P1;HPM_P2
2023/11/27 00:01:58;;;;;;;4.70;4.30;;;;;;;-1.90;100.00;97553.94;88595;274;136791;-76
2023/11/27 00:04:01;;;;;;;4.70;4.20;;;;;;;-1.90;100.00;97558.41;88661;280;25140;-77
2023/11/27 00:06:03;;;;;;;3.50;3.20;;;;;;;-1.87;100.00;97569.09;88667;280;24054;-77
2023/11/27 00:08:07;;;;;;;5.40;4.70;;;;;;;-1.86;100.00;97563.33;88505;274;136537;-79
2023/11/27 00:10:13;;;;;;;4.70;4.30;;;;;;;-1.87;100.00;97560.45;88594;273;22524;-77
2023/11/27 00:12:14;;;;;;;6.20;4.20;;;;;;;-1.88;100.00;97557.67;88548;281;137106;-78
2023/11/27 00:14:16;;;;;;;4.60;4.00;;;;;;;-1.89;100.00;97560.55;88656;281;22779;-78
2023/11/27 00:16:18;;;;;;;4.90;4.20;;;;;;;-1.90;100.00;97544.66;88547;281;138073;-78
2023/11/27 00:18:21;;;;;;;3.70;3.40;;;;;;;-1.91;100.00;97544.64;88680;281;24061;-77
2023/11/27 00:20:23;;;;;;;5.00;4.00;;;;;;;-1.94;100.00;97552.80;88633;281;136161;-75
2023/11/27 00:22:26;;;;;;;4.90;4.30;;;;;;;-1.97;100.00;97559.70;88772;281;25083;-75
2023/11/27 00:24:30;;;;;;;4.40;4.00;;;;;;;-2.09;100.00;97543.33;88585;281;135722;-80
2023/11/27 00:26:32;;;;;;;4.30;3.90;;;;;;;-2.03;100.00;97545.75;88696;277;22536;-78
2023/11/27 00:28:35;;;;;;;6.50;4.20;;;;;;;-2.00;100.00;97538.65;88904;281;136389;-78
2023/11/27 00:30:37;;;;;;;3.80;3.40;;;;;;;-1.95;100.00;97539.84;88981;277;22544;-74
2023/11/27 00:32:39;;;;;;;5.00;4.00;;;;;;;-1.91;100.00;97550.94;89081;280;136357;-77
2023/11/27 00:34:41;;;;;;;6.30;4.40;;;;;;;-1.91;100.00;97542.52;89378;281;23828;-77
2023/11/27 00:36:44;;;;;;;4.90;4.20;;;;;;;-1.91;100.00;97544.64;89742;281;137641;-74
2023/11/27 00:38:46;;;;;;;4.20;3.70;;;;;;;-1.91;100.00;97546.34;89728;277;22486;-77
2023/11/27 00:40:47;;;;;;;3.50;3.20;;;;;;;-1.91;100.00;97544.73;88697;281;137900;-74
2023/11/27 00:42:50;;;;;;;7.30;4.60;;;;;;;-1.94;100.00;97542.68;88746;281;23782;-78
2023/11/27 00:44:52;;;;;;;5.10;4.60;;;;;;;-2.02;100.00;97539.14;88613;281;135675;-78
2023/11/27 00:46:54;;;;;;;3.80;3.40;;;;;;;-2.10;100.00;97535.27;88693;281;22537;-79
2023/11/27 00:48:56;;;;;;;7.50;3.70;;;;;;;-2.11;100.00;97543.09;89048;282;137970;-75
2023/11/27 00:51:00;;;;;;;4.90;4.40;;;;;;;-2.08;100.00;97546.71;89523;281;22880;-78
2023/11/27 00:53:02;;;;;;;5.00;3.80;;;;;;;-2.04;100.00;97540.15;89329;282;137037;-77
2023/11/27 00:55:05;;;;;;;5.10;3.80;;;;;;;-2.01;100.00;97544.56;89456;282;22667;-76
2023/11/27 00:57:08;;;;;;;3.90;3.60;;;;;;;-1.99;100.00;97546.36;89496;280;136983;-75
2023/11/27 00:59:10;;;;;;;5.70;3.50;;;;;;;-1.97;100.00;97548.02;89670;281;22528;-77
2023/11/27 01:01:14;;;;;;;7.50;4.50;;;;;;;-1.98;100.00;97533.90;89586;278;137042;-76
2023/11/27 01:03:18;;;;;;;4.60;4.10;;;;;;;-2.02;100.00;97550.25;89245;277;23722;-76
2023/11/27 01:05:20;;;;;;;5.30;4.30;;;;;;;-2.06;100.00;97544.05;89335;282;135627;-74
2023/11/27 01:07:23;;;;;;;4.10;3.80;;;;;;;-2.05;100.00;97547.32;89950;281;22548;-77
2023/11/27 01:09:25;;;;;;;4.10;3.20;;;;;;;-2.01;100.00;97549.98;89884;273;136057;-78
2023/11/27 01:11:29;;;;;;;5.50;4.30;;;;;;;-1.99;100.00;97550.88;89731;280;22546;-79
2023/11/27 01:13:31;;;;;;;5.70;3.70;;;;;;;-1.99;100.00;97552.84;88582;280;136301;-79
2023/11/27 01:15:33;;;;;;;3.70;3.10;;;;;;;-1.99;100.00;97548.11;88642;282;25343;-68
2023/11/27 01:17:35;;;;;;;4.20;3.70;;;;;;;-1.98;100.00;97547.80;88537;281;136383;-82
2023/11/27 01:19:38;;;;;;;4.70;4.30;;;;;;;-1.97;100.00;97544.11;88626;274;24024;-76
2023/11/27 01:21:41;;;;;;;6.60;4.30;;;;;;;-2.02;100.00;97537.48;88783;277;136156;-67
2023/11/27 01:23:44;;;;;;;4.90;4.30;;;;;;;-2.07;100.00;97548.96;88813;281;22547;-78
2023/11/27 01:25:46;;;;;;;4.30;3.90;;;;;;;-2.12;100.00;97551.42;88647;281;136061;-76
2023/11/27 01:27:48;;;;;;;5.40;4.90;;;;;;;-2.13;100.00;97544.02;88659;281;23676;-79
2023/11/27 01:29:52;;;;;;;5.70;4.60;;;;;;;-2.11;100.00;97543.58;88535;278;136023;-69
2023/11/27 01:31:54;;;;;;;4.00;3.60;;;;;;;-2.09;100.00;97540.44;88636;281;22582;-73
2023/11/27 01:33:56;;;;;;;4.50;3.30;;;;;;;-2.08;100.00;97555.55;88414;281;136139;-67
2023/11/27 01:35:58;;;;;;;4.30;3.90;;;;;;;-2.06;100.00;97551.40;88637;281;22533;-70
2023/11/27 01:38:00;;;;;;;5.00;4.10;;;;;;;-2.05;100.00;97555.16;88522;273;136108;-76
2023/11/27 01:40:03;;;;;;;5.20;4.20;;;;;;;-2.06;100.00;97553.78;88500;281;138526;-68
2023/11/27 01:42:09;;;;;;;;;;;;;;;-2.08;100.00;97554.73;88603;277;22645;-78
2023/11/27 01:44:13;;;;;;;6.10;4.90;;;;;;;-2.17;100.00;97558.70;88425;280;122345;-77
2023/11/27 01:46:23;;;;;;;7.60;4.60;;;;;;;-2.25;100.00;97551.33;88632;277;24054;-75
2023/11/27 01:48:27;;;;;;;8.20;5.20;;;;;;;-2.29;100.00;97550.30;88638;281;136759;-75
2023/11/27 01:50:30;;;;;;;6.80;4.00;;;;;;;-2.30;100.00;97544.34;88635;280;22627;-75
2023/11/27 01:52:35;;;;;;;5.80;4.60;;;;;;;-2.30;100.00;97547.22;88622;280;136638;-75
2023/11/27 01:54:40;;;;;;;4.70;3.20;;;;;;;-2.30;100.00;97543.66;88625;280;22620;-75
2023/11/27 01:56:46;;;;;;;4.50;3.90;;;;;;;-2.27;100.00;97558.48;88502;273;136575;-76
2023/11/27 01:58:51;;;;;;;5.40;3.90;;;;;;;-2.27;100.00;97537.58;88658;281;22542;-75
2023/11/27 02:00:53;;;;;;;4.80;4.10;;;;;;;-2.26;100.00;97546.70;88517;278;137647;-70
2023/11/27 02:02:57;;;;;;;6.80;4.90;;;;;;;-2.24;100.00;97553.95;89055;276;22485;-75
2023/11/27 02:04:59;;;;;;;5.20;4.00;;;;;;;-2.21;100.00;97564.92;88693;276;136159;-72
2023/11/27 02:07:02;;;;;;;4.60;4.20;;;;;;;-2.20;100.00;97554.63;88670;279;24052;-79
2023/11/27 02:09:06;;;;;;;5.70;4.20;;;;;;;-2.33;100.00;97540.23;88589;273;135914;-78
2023/11/27 02:11:08;;;;;;;5.00;4.30;;;;;;;-2.30;100.00;97558.48;88632;280;22615;-71
2023/11/27 02:13:12;;;;;;;4.60;4.20;;;;;;;-2.30;100.00;97554.98;88499;276;136486;-77
2023/11/27 02:15:14;;;;;;;5.60;4.50;;;;;;;-2.26;100.00;97563.03;88986;280;22489;-67
2023/11/27 02:17:19;;;;;;;5.30;4.70;;;;;;;-2.25;100.00;97561.69;88539;273;136515;-69
2023/11/27 02:19:21;;;;;;;4.60;3.50;;;;;;;-2.28;100.00;97550.57;88611;282;25169;-76
2023/11/27 02:21:23;;;;;;;5.30;3.70;;;;;;;-2.30;100.00;97556.90;88518;281;136543;-76
2023/11/27 02:23:25;;;;;;;5.30;3.80;;;;;;;-2.32;100.00;97555.55;88602;280;25089;-75
2023/11/27 02:25:27;;;;;;;5.30;4.60;;;;;;;-2.32;100.00;97556.47;88516;274;136691;-75
2023/11/27 02:27:29;;;;;;;3.80;3.40;;;;;;;-2.33;100.00;97558.86;88572;277;22534;-70
2023/11/27 02:29:32;;;;;;;4.80;4.00;;;;;;;-2.35;100.00;97567.54;88437;273;137660;-75
2023/11/27 02:31:34;;;;;;;7.50;3.60;;;;;;;-2.38;100.00;97549.91;88669;280;25251;-75
2023/11/27 02:33:38;;;;;;;7.50;4.40;;;;;;;-2.40;100.00;97555.90;88512;273;136130;-73
2023/11/27 02:35:40;;;;;;;5.60;5.10;;;;;;;-2.39;100.00;97567.23;88562;277;25083;-74
2023/11/27 02:37:42;;;;;;;5.10;4.00;;;;;;;-2.34;100.00;97563.29;88457;273;136858;-74
2023/11/27 02:39:44;;;;;;;4.60;4.10;;;;;;;-2.31;100.00;97567.64;88642;280;22530;-77
2023/11/27 02:41:46;;;;;;;4.50;3.70;;;;;;;-2.30;100.00;97562.27;88459;272;137706;-74
2023/11/27 02:43:48;;;;;;;7.60;3.40;;;;;;;-2.29;100.00;97569.60;88653;280;22777;-78
2023/11/27 02:45:51;;;;;;;4.70;4.20;;;;;;;-2.28;100.00;97557.52;88408;278;136306;-72
2023/11/27 02:47:53;;;;;;;5.20;4.40;;;;;;;-2.30;100.00;97565.80;88734;273;25216;-78
2023/11/27 02:49:55;;;;;;;5.10;4.60;;;;;;;-2.35;100.00;97565.14;88395;273;136765;-75
2023/11/27 02:51:57;;;;;;;4.80;4.30;;;;;;;-2.40;100.00;97573.51;88607;280;25203;-74
2023/11/27 02:53:59;;;;;;;5.50;4.40;;;;;;;-2.42;100.00;97586.91;88414;273;137240;-73
2023/11/27 02:56:00;;;;;;;5.50;4.60;;;;;;;-2.39;100.00;97577.73;88467;282;22755;-71
2023/11/27 02:58:02;;;;;;;4.90;3.70;;;;;;;-2.36;100.00;97577.55;88580;275;22621;-72
2023/11/27 03:00:05;;;;;;;5.00;4.20;;;;;;;-2.33;100.00;97570.49;88465;281;136793;-69
2023/11/27 03:02:08;;;;;;;5.60;4.00;;;;;;;-2.38;100.00;97564.95;88541;280;22539;-73
2023/11/27 03:04:10;;;;;;;6.50;4.00;;;;;;;-2.28;100.00;97587.27;88424;277;138486;-74
2023/11/27 03:06:13;;;;;;;4.40;4.00;;;;;;;-2.29;100.00;97592.64;88567;281;24058;-71
2023/11/27 03:08:15;;;;;;;5.60;4.90;;;;;;;-2.32;100.00;97598.41;88360;274;135629;-69
2023/11/27 03:10:17;;;;;;;4.80;4.30;;;;;;;-2.35;100.00;97596.23;88525;273;22976;-75
2023/11/27 03:12:19;;;;;;;8.10;4.70;;;;;;;-2.37;100.00;97600.33;88530;274;136934;-74
2023/11/27 03:14:21;;;;;;;5.70;4.40;;;;;;;-2.37;100.00;97600.85;88644;280;25162;-74
2023/11/27 03:16:23;;;;;;;5.60;5.10;;;;;;;-2.32;100.00;97603.95;88374;273;136440;-72
2023/11/27 03:18:25;;;;;;;4.50;4.10;;;;;;;-2.28;100.00;97604.52;88656;280;24035;-72
2023/11/27 03:20:27;;;;;;;4.60;3.60;;;;;;;-2.25;100.00;97592.38;88625;280;138228;-74
2023/11/27 03:22:30;;;;;;;9.00;5.50;;;;;;;-2.24;100.00;97598.43;88724;280;24018;-72
2023/11/27 03:24:32;;;;;;;4.70;4.10;;;;;;;-2.29;100.00;97599.06;88590;282;137587;-74
2023/11/27 03:26:34;;;;;;;5.30;4.00;;;;;;;-2.36;100.00;97601.75;88533;273;22532;-69
2023/11/27 03:28:37;;;;;;;4.90;4.10;;;;;;;-2.42;100.00;97597.02;88563;281;135877;-73
2023/11/27 03:30:39;;;;;;;6.00;5.10;;;;;;;-2.42;100.00;97616.83;88545;280;25085;-71
2023/11/27 03:32:41;;;;;;;11.00;4.80;;;;;;;-2.38;100.00;97602.84;88470;273;136597;-72
2023/11/27 03:34:43;;;;;;;4.60;4.00;;;;;;;-2.39;100.00;97601.73;88679;273;24024;-72
2023/11/27 03:36:45;;;;;;;4.20;3.60;;;;;;;-2.37;100.00;97609.56;88492;273;137950;-73
2023/11/27 03:38:47;;;;;;;4.20;3.70;;;;;;;-2.39;100.00;97622.91;88643;276;22535;-75
2023/11/27 03:40:49;;;;;;;6.90;4.10;;;;;;;-2.38;100.00;97628.97;88350;280;137047;-74
2023/11/27 03:42:52;;;;;;;4.10;3.70;;;;;;;-2.37;100.00;97619.88;88446;273;22560;-68
2023/11/27 03:44:54;;;;;;;6.00;3.90;;;;;;;-2.38;100.00;97624.54;88379;280;136324;-73
2023/11/27 03:46:56;;;;;;;6.60;4.30;;;;;;;-2.41;100.00;97619.00;88544;281;22540;-74
2023/11/27 03:48:59;;;;;;;8.80;4.60;;;;;;;-2.44;100.00;97629.81;88428;277;135941;-74
2023/11/27 03:51:05;;;;;;;4.90;3.60;;;;;;;-2.45;100.00;97635.48;88583;278;25239;-71
2023/11/27 03:53:08;;;;;;;3.90;3.10;;;;;;;-2.46;100.00;97628.77;88380;280;136514;-72
2023/11/27 03:55:10;;;;;;;4.50;3.90;;;;;;;-2.51;100.00;97634.80;88485;282;25109;-73
2023/11/27 03:57:12;;;;;;;5.50;4.40;;;;;;;-2.53;100.00;97640.56;88410;274;136740;-72
2023/11/27 03:59:15;;;;;;;4.80;4.00;;;;;;;-2.52;100.00;97643.58;88614;274;22543;-71
2023/11/27 04:01:17;;;;;;;6.10;5.50;;;;;;;-2.49;100.00;97640.80;88489;280;136709;-74
2023/11/27 04:03:19;;;;;;;8.20;5.20;;;;;;;-2.55;100.00;97624.43;88613;277;24170;-76
2023/11/27 04:05:22;;;;;;;6.80;4.30;;;;;;;-2.49;100.00;97634.02;88541;280;136222;-79
2023/11/27 04:07:25;;;;;;;4.10;3.50;;;;;;;-2.65;100.00;97623.70;89032;273;22534;-75
2023/11/27 04:09:27;;;;;;;5.60;4.30;;;;;;;-2.61;100.00;97632.52;88468;276;137420;-75
2023/11/27 04:11:31;;;;;;;7.20;4.40;;;;;;;-2.65;100.00;97644.95;88585;272;25210;-71
2023/11/27 04:13:33;;;;;;;4.60;4.20;;;;;;;-2.63;100.00;97653.38;88405;272;137507;-74
2023/11/27 04:15:35;;;;;;;9.40;5.50;;;;;;;-2.61;100.00;97644.51;88640;280;24187;-73
2023/11/27 04:17:37;;;;;;;4.80;4.00;;;;;;;-2.60;100.00;97646.20;88420;280;136885;-69
2023/11/27 04:19:39;;;;;;;6.00;4.10;;;;;;;-2.59;100.00;97659.10;88565;280;22555;-75
2023/11/27 04:21:41;;;;;;;5.50;4.80;;;;;;;-2.57;100.00;97654.83;88467;280;137415;-75
2023/11/27 04:23:47;;;;;;;6.30;4.10;;;;;;;-2.54;100.00;97663.73;88633;276;24545;-77
2023/11/27 04:25:49;;;;;;;5.00;4.30;;;;;;;-2.55;100.00;97661.36;88584;280;137646;-75
2023/11/27 04:27:51;;;;;;;6.30;4.70;;;;;;;-2.56;100.00;97664.50;88555;273;23905;-75
2023/11/27 04:29:54;;;;;;;4.90;4.20;;;;;;;-2.59;100.00;97666.89;88447;281;136207;-75
2023/11/27 04:31:57;;;;;;;5.60;3.60;;;;;;;-2.59;100.00;97661.64;88573;273;24017;-75
2023/11/27 04:33:59;;;;;;;5.80;4.20;;;;;;;-2.58;100.00;97655.28;88489;273;136731;-76
2023/11/27 04:36:02;;;;;;;6.50;4.20;;;;;;;-2.60;100.00;97665.98;88764;273;25223;-76
2023/11/27 04:38:04;;;;;;;7.30;4.30;;;;;;;-2.62;100.00;97666.73;88917;273;22546;-71
2023/11/27 04:40:10;;;;;;;5.70;4.50;;;;;;;-2.70;100.00;97658.05;88388;273;137860;-75
2023/11/27 04:42:13;;;;;;;4.40;4.00;;;;;;;-2.61;100.00;97676.64;89868;277;22538;-71
2023/11/27 04:44:16;;;;;;;4.60;4.20;;;;;;;-2.59;100.00;97656.65;88569;273;138296;-70
2023/11/27 04:46:18;;;;;;;5.70;4.80;;;;;;;-2.60;100.00;97668.73;88806;272;22673;-77
2023/11/27 04:48:21;;;;;;;8.70;4.90;;;;;;;-2.65;100.00;97666.68;88863;273;137743;-73
2023/11/27 04:50:24;;;;;;;7.60;5.70;;;;;;;-2.72;100.00;97670.28;88606;280;22523;-76
2023/11/27 04:52:29;;;;;;;6.10;5.10;;;;;;;-2.82;100.00;97665.63;88764;280;137662;-76
2023/11/27 04:54:31;;;;;;;7.90;4.40;;;;;;;-2.79;100.00;97674.38;88716;281;24124;-74
2023/11/27 04:56:33;;;;;;;7.10;4.30;;;;;;;-2.79;100.00;97667.17;88538;280;136811;-72
2023/11/27 04:58:35;;;;;;;6.50;4.70;;;;;;;-2.78;100.00;97662.02;88592;280;24227;-73
2023/11/27 05:00:37;;;;;;;4.40;3.90;;;;;;;-2.76;100.00;97674.04;88443;272;137119;-75
2023/11/27 05:02:39;;;;;;;6.50;4.60;;;;;;;-2.75;100.00;97673.39;88337;273;22551;-73
2023/11/27 05:04:41;;;;;;;5.50;4.80;;;;;;;-2.73;100.00;97677.61;88515;273;136498;-72
2023/11/27 05:06:45;;;;;;;6.40;4.60;;;;;;;-2.72;100.00;97667.86;88777;273;22534;-71
2023/11/27 05:08:47;;;;;;;7.10;4.50;;;;;;;-2.67;100.00;97670.55;88277;273;136500;-76
2023/11/27 05:10:49;;;;;;;4.40;4.00;;;;;;;-2.68;100.00;97674.34;88435;274;22534;-77
2023/11/27 05:12:51;;;;;;;6.20;5.10;;;;;;;-2.73;100.00;97667.48;88392;273;135869;-77
2023/11/27 05:14:53;;;;;;;7.60;5.30;;;;;;;-2.80;100.00;97686.99;88450;273;25146;-75
2023/11/27 05:16:55;;;;;;;5.90;5.00;;;;;;;-2.87;100.00;97676.84;88631;273;137703;-77
2023/11/27 05:18:57;;;;;;;5.60;3.50;;;;;;;-2.86;100.00;97693.72;88855;273;24014;-73
2023/11/27 05:20:59;;;;;;;5.60;4.60;;;;;;;-2.83;100.00;97699.16;88364;273;137316;-67
2023/11/27 05:23:02;;;;;;;5.60;4.30;;;;;;;-2.82;100.00;97695.70;88446;273;22500;-71
2023/11/27 05:25:05;;;;;;;6.00;4.90;;;;;;;-2.80;100.00;97692.20;88332;273;136767;-71
2023/11/27 05:27:08;;;;;;;5.40;4.70;;;;;;;-2.78;100.00;97696.27;88450;273;24169;-73
2023/11/27 05:29:11;;;;;;;6.50;4.70;;;;;;;-2.77;100.00;97686.25;88420;273;136509;-74
2023/11/27 05:31:14;;;;;;;5.60;4.10;;;;;;;-2.76;100.00;97691.55;88687;273;24058;-74
2023/11/27 05:33:17;;;;;;;4.70;4.30;;;;;;;-2.74;100.00;97693.06;88543;273;136804;-70
2023/11/27 05:35:19;;;;;;;6.80;5.00;;;;;;;-2.80;100.00;97693.21;88448;273;25217;-73
2023/11/27 05:37:21;;;;;;;5.60;5.00;;;;;;;-2.71;100.00;97704.72;88416;277;136832;-72
2023/11/27 05:39:23;;;;;;;7.20;5.60;;;;;;;-2.69;100.00;97706.58;88562;273;23935;-73
2023/11/27 05:41:25;;;;;;;5.90;4.30;;;;;;;-2.65;100.00;97702.31;88444;273;137720;-69
2023/11/27 05:43:28;;;;;;;6.00;4.60;;;;;;;-2.61;100.00;97707.33;88538;279;24322;-70
2023/11/27 05:45:30;;;;;;;5.80;4.80;;;;;;;-2.59;100.00;97701.68;88566;273;137502;-68
2023/11/27 05:47:32;;;;;;;5.20;4.60;;;;;;;-2.61;100.00;97719.65;88572;273;22562;-70
2023/11/27 05:49:35;;;;;;;7.40;4.90;;;;;;;-2.65;100.00;97715.89;88282;274;136190;-76
2023/11/27 05:51:39;;;;;;;4.70;3.60;;;;;;;-2.70;100.00;97724.98;88492;277;25230;-73
2023/11/27 05:53:41;;;;;;;;;;;;;;;-2.81;100.00;97709.52;91176;280;137594;-74
2023/11/27 05:55:44;;;;;;;6.00;4.40;;;;;;;-2.72;100.00;97729.39;91293;281;22328;-73
2023/11/27 05:57:46;;;;;;;6.00;4.20;;;;;;;-2.77;100.00;97710.80;91179;281;136087;-75
2023/11/27 05:59:48;;;;;;;6.10;4.90;;;;;;;-2.67;100.00;97735.74;89389;274;24095;-75
2023/11/27 06:01:51;;;;;;;5.00;4.50;;;;;;;-2.65;100.00;97718.00;88459;273;137361;-75
2023/11/27 06:03:53;;;;;;;7.70;5.00;;;;;;;-2.61;100.00;97727.27;88543;277;23974;-72
2023/11/27 06:05:55;;;;;;;6.40;5.30;;;;;;;-2.59;100.00;97739.43;88410;273;136798;-76
2023/11/27 06:07:57;;;;;;;6.20;4.90;;;;;;;-2.62;100.00;97728.49;88603;280;26282;-67
2023/11/27 06:10:00;;;;;;;7.00;5.20;;;;;;;-2.65;100.00;97735.70;88517;272;136496;-78
2023/11/27 06:12:02;;;;;;;6.40;4.70;;;;;;;-2.66;100.00;97742.27;88664;272;22559;-75
2023/11/27 06:14:04;;;;;;;9.40;6.10;;;;;;;-2.66;100.00;97743.11;88638;273;22533;-75
2023/11/27 06:16:10;;;;;;;5.40;4.40;;;;;;;-2.65;100.00;97744.36;88466;273;136649;-74
2023/11/27 06:18:16;;;;;;;7.10;6.20;;;;;;;-2.67;100.00;97760.65;88733;272;25134;-72
2023/11/27 06:20:18;;;;;;;7.20;5.30;;;;;;;-2.72;100.00;97763.82;88360;273;136118;-75
2023/11/27 06:22:20;;;;;;;6.20;4.50;;;;;;;-2.75;100.00;97762.48;88657;273;23941;-79
2023/11/27 06:24:22;;;;;;;10.80;5.60;;;;;;;-2.73;100.00;97761.96;88516;273;136962;-75
2023/11/27 06:26:24;;;;;;;12.10;6.30;;;;;;;-2.73;100.00;97755.05;88571;273;24394;-74
2023/11/27 06:28:26;;;;;;;8.80;5.40;;;;;;;-2.76;100.00;97761.94;88391;273;136660;-77
2023/11/27 06:30:28;;;;;;;8.20;6.10;;;;;;;-2.76;100.00;97771.48;88696;273;25342;-79
2023/11/27 06:32:30;;;;;;;9.70;6.00;;;;;;;-2.77;100.00;97764.86;88462;273;137303;-81
2023/11/27 06:34:34;;;;;;;11.30;4.70;;;;;;;-2.77;100.00;97770.51;88526;273;25168;-75
2023/11/27 06:36:36;;;;;;;10.10;5.10;;;;;;;-2.92;100.00;97751.55;88464;272;136836;-77
2023/11/27 06:38:39;;;;;;;7.40;4.30;;;;;;;-2.77;100.00;97778.36;88539;276;24033;-72
2023/11/27 06:40:41;;;;;;;15.50;5.80;;;;;;;-2.78;100.00;97781.67;88557;280;137095;-77
2023/11/27 06:42:49;;;;;;;5.80;5.20;;;;;;;-2.77;100.00;97782.59;88644;280;27293;-77
2023/11/27 06:44:51;;;;;;;5.40;4.60;;;;;;;-2.74;100.00;97783.56;88470;273;136519;-75
2023/11/27 06:46:54;;;;;;;6.80;5.20;;;;;;;-2.70;100.00;97789.33;88731;273;22540;-82
2023/11/27 06:48:57;;;;;;;5.90;4.80;;;;;;;-2.66;100.00;97799.62;88551;273;136831;-80
2023/11/27 06:50:59;;;;;;;8.80;5.70;;;;;;;-2.60;100.00;97793.77;89295;280;22514;-83
2023/11/27 06:53:00;;;;;;;5.10;4.50;;;;;;;-2.52;100.00;97801.45;89320;273;136522;-80
2023/11/27 06:55:04;;;;;;;10.10;5.80;;;;;;;-2.58;100.00;97782.30;88901;273;24065;-78
2023/11/27 06:57:08;;;;;;;6.90;5.10;;;;;;;-2.51;100.00;97792.05;88970;273;136323;-85
2023/11/27 06:59:10;;;;;;;6.10;5.00;;;;;;;-2.52;100.00;97803.04;89136;273;23686;-72
2023/11/27 07:01:13;;;;;;;7.00;4.20;;;;;;;-2.54;100.00;97798.13;88692;280;136203;-77
2023/11/27 07:03:15;;;;;;;7.20;5.00;;;;;;;-2.52;100.00;97807.35;89090;277;24056;-85
2023/11/27 07:05:18;;;;;;;7.50;5.20;;;;;;;-2.46;100.00;97815.42;89120;273;137927;-81
2023/11/27 07:07:20;;;;;;;7.10;5.60;;;;;;;-2.40;100.00;97814.95;90110;280;22622;-74
2023/11/27 07:09:23;;;;;;;4.90;4.50;;;;;;;-2.40;100.00;97817.10;90527;277;136553;-70
2023/11/27 07:11:25;;;;;;;7.10;4.70;;;;;;;-2.32;100.00;97823.11;90684;281;25892;-72
2023/11/27 07:13:27;;;;;;;8.40;5.70;;;;;;;-2.29;100.00;97828.69;90493;273;135990;-76
2023/11/27 07:15:29;;;;;;;5.10;4.40;;;;;;;-2.27;100.00;97826.69;89386;281;642053;-79
2023/11/27 07:17:31;;;;;;;7.60;5.00;;;;;;;-2.27;100.00;97825.19;88966;277;137115;-83
2023/11/27 07:19:33;;;;;;;5.30;4.80;;;;;;;-2.32;100.00;97822.59;89237;277;26978;-80
2023/11/27 07:21:35;;;;;;;8.80;5.40;;;;;;;-2.32;100.00;97832.54;89035;280;136690;-76
2023/11/27 07:23:41;;;;;;;7.30;4.30;;;;;;;-2.29;100.00;97835.30;88828;273;22478;-73
2023/11/27 07:25:43;;;;;;;7.30;5.50;;;;;;;-2.28;100.00;97841.67;88546;273;138114;-84
2023/11/27 07:27:49;;;;;;;6.70;5.70;;;;;;;-2.29;100.00;97844.17;88938;273;22535;-79
2023/11/27 07:29:52;;;;;;;9.90;5.80;;;;;;;-2.29;100.00;97840.88;89679;280;136871;-78
2023/11/27 07:31:54;;;;;;;6.80;5.00;;;;;;;-2.26;100.00;97847.95;90780;273;22556;-72
2023/11/27 07:33:57;;;;;;;5.50;4.50;;;;;;;-2.21;100.00;97850.77;90610;280;135930;-80
2023/11/27 07:36:00;;;;;;;8.00;5.50;;;;;;;-2.19;100.00;97844.92;89478;273;24060;-80
2023/11/27 07:38:02;;;;;;;7.60;5.70;;;;;;;-2.19;100.00;97845.80;88726;277;136752;-82
2023/11/27 07:40:09;;;;;;;10.80;5.20;;;;;;;-2.19;100.00;97857.20;88568;273;136784;-82
2023/11/27 07:42:14;;;;;;;7.80;5.60;;;;;;;-2.15;100.00;97849.25;88963;278;27433;-79
2023/11/27 07:44:16;;;;;;;7.10;5.10;;;;;;;-2.11;100.00;97858.24;88668;273;138094;-83
2023/11/27 07:46:19;;;;;;;7.40;4.70;;;;;;;-2.08;100.00;97864.17;88646;273;25950;-74
2023/11/27 07:48:22;;;;;;;6.70;5.10;;;;;;;-2.09;100.00;97852.06;88499;280;138331;-86
2023/11/27 07:50:24;;;;;;;7.20;4.90;;;;;;;-2.08;100.00;97853.70;88514;273;22534;-85
2023/11/27 07:52:27;;;;;;;7.30;5.90;;;;;;;-2.10;100.00;97871.17;88659;273;136018;-85
2023/11/27 07:54:31;;;;;;;6.10;5.40;;;;;;;-2.15;100.00;97874.32;88649;272;22527;-82
2023/11/27 07:56:33;;;;;;;7.50;5.60;;;;;;;-2.20;100.00;97863.55;88934;272;136042;-86
2023/11/27 07:58:36;;;;;;;8.20;5.40;;;;;;;-2.25;100.00;97875.84;88634;273;26815;-81
2023/11/27 08:00:39;;;;;;;7.70;4.30;;;;;;;-2.21;100.00;97885.91;88678;273;137777;-79
2023/11/27 08:02:44;;;;;;;6.50;5.00;;;;;;;-2.14;100.00;97893.32;88769;276;22535;-81
2023/11/27 08:04:47;;;;;;;8.80;5.10;;;;;;;-2.09;100.00;97892.83;88518;280;137511;-83
2023/11/27 08:06:50;;;;;;;8.50;5.40;;;;;;;-2.11;100.00;97898.44;88662;272;25136;-80
2023/11/27 08:08:54;;;;;;;11.80;6.10;;;;;;;-2.18;100.00;97899.14;88523;273;135990;-85
2023/11/27 08:10:56;;;;;;;6.60;4.80;;;;;;;-2.21;100.00;97890.40;88792;273;25746;-83
2023/11/27 08:12:59;;;;;;;9.50;6.40;;;;;;;-2.24;100.00;97903.27;90735;277;135875;-77
2023/11/27 08:15:06;;;;;;;11.30;6.50;;;;;;;-2.22;100.00;97900.44;90777;277;22542;-78
2023/11/27 08:17:09;;;;;;;10.30;6.10;;;;;;;-2.17;100.00;97909.42;89004;273;137005;-79
2023/11/27 08:19:16;;;;;;;11.40;6.50;;;;;;;-2.13;100.00;97899.52;88768;280;24034;-86
2023/11/27 08:21:19;;;;;;;8.00;5.70;;;;;;;-2.11;100.00;97906.38;88967;273;136176;-82
2023/11/27 08:23:24;;;;;;;8.50;6.30;;;;;;;-2.12;100.00;97899.39;88502;274;25053;-77
2023/11/27 08:25:27;;;;;;;8.30;5.90;;;;;;;-2.15;100.00;97902.34;88655;275;135692;-86
2023/11/27 08:27:30;;;;;;;6.20;5.40;;;;;;;-2.18;100.00;97912.88;88531;277;22612;-78
2023/11/27 08:29:32;;;;;;;9.00;7.10;;;;;;;-2.20;100.00;97911.90;88381;273;136180;-84
2023/11/27 08:31:35;;;;;;;9.30;6.50;;;;;;;-2.22;100.00;97914.65;88635;273;22531;-85
2023/11/27 08:33:38;;;;;;;6.80;5.30;;;;;;;-2.13;100.00;97909.41;88718;280;136605;-76
2023/11/27 08:35:42;;;;;;;6.90;5.00;;;;;;;-2.06;100.00;97907.89;88806;272;22599;-82
2023/11/27 08:37:44;;;;;;;9.40;5.90;;;;;;;-2.00;100.00;97922.45;88713;277;137162;-85
2023/11/27 08:39:46;;;;;;;6.40;5.40;;;;;;;-2.00;100.00;97921.71;88461;280;25162;-82
2023/11/27 08:41:50;;;;;;;11.30;6.00;;;;;;;-2.02;100.00;97917.44;88312;273;137094;-82
2023/11/27 08:43:52;;;;;;;7.40;6.60;;;;;;;-2.05;100.00;97931.84;88846;273;22471;-74
2023/11/27 08:45:55;;;;;;;8.20;6.10;;;;;;;-2.09;100.00;97928.79;88464;280;136887;-79
2023/11/27 08:48:00;;;;;;;7.10;5.70;;;;;;;-2.10;100.00;97926.30;88629;273;22547;-70
2023/11/27 08:50:07;;;;;;;6.60;5.00;;;;;;;-2.11;100.00;97942.95;88888;280;25045;-83
2023/11/27 08:52:09;;;;;;;8.70;6.10;;;;;;;-2.09;100.00;97948.65;88681;272;136907;-84
2023/11/27 08:54:16;;;;;;;5.40;4.90;;;;;;;-2.08;100.00;97952.01;90553;280;22681;-75
2023/11/27 08:56:21;;;;;;;6.80;4.20;;;;;;;-2.06;100.00;97954.43;90915;273;137616;-74
2023/11/27 08:58:24;;;;;;;10.10;6.20;;;;;;;-2.03;100.00;97956.02;88922;277;24089;-83
2023/11/27 09:00:30;;;;;;;8.10;6.50;;;;;;;-2.02;100.00;97957.80;89208;277;136821;-82
2023/11/27 09:02:32;;;;;;;8.10;6.00;;;;;;;-2.05;100.00;97944.70;88805;281;23617;-79
2023/11/27 09:04:34;;;;;;;7.50;5.30;;;;;;;-2.06;100.00;97954.07;88543;277;136202;-80
2023/11/27 09:06:36;;;;;;;9.70;6.30;;;;;;;-2.08;100.00;97952.48;88671;273;22538;-79
2023/11/27 09:08:39;;;;;;;11.50;6.20;;;;;;;-2.08;100.00;97952.92;88653;273;135921;-86
2023/11/27 09:10:41;;;;;;;8.90;6.00;;;;;;;-2.15;100.00;97936.11;88502;273;25004;-83
2023/11/27 09:12:43;;;;;;;9.80;6.90;;;;;;;-2.02;100.00;97954.27;88339;274;136569;-74
2023/11/27 09:14:45;;;;;;;8.40;5.50;;;;;;;-1.97;100.00;97950.98;90211;280;22764;-76
2023/11/27 09:16:47;;;;;;;8.20;5.80;;;;;;;-1.92;100.00;97954.95;89639;276;136326;-80
2023/11/27 09:18:49;;;;;;;9.20;5.40;;;;;;;-1.93;100.00;97956.84;89306;280;22478;-82
2023/11/27 09:20:51;;;;;;;9.70;6.30;;;;;;;-1.97;100.00;97952.77;88754;272;140160;-69
2023/11/27 09:22:56;;;;;;;13.60;6.40;;;;;;;-1.97;100.00;97945.46;88719;277;24284;-80
2023/11/27 09:24:58;;;;;;;8.30;5.40;;;;;;;-1.99;100.00;97955.06;88729;273;136202;-84
2023/11/27 09:27:01;;;;;;;8.90;6.30;;;;;;;-2.00;100.00;97949.72;88655;273;23762;-82
2023/11/27 09:29:04;;;;;;;11.30;5.40;;;;;;;-2.06;100.00;97939.58;90322;274;135702;-85
2023/11/27 09:31:07;;;;;;;13.30;7.10;;;;;;;-1.94;100.00;97949.47;89210;272;22515;-82
2023/11/27 09:33:09;;;;;;;10.50;6.00;;;;;;;-1.85;100.00;97958.95;90001;279;137340;-77
2023/11/27 09:35:13;;;;;;;6.60;5.00;;;;;;;-1.88;100.00;97960.45;89937;278;24896;-74